Time;durP1;ratioP1;P1;durP2;ratioP2;P2;SDS_P1;SDS_P2;PMS_P1;PMS_P2;Temp;Humidity;BMP_temperature;BMP_pressure;BME280_temperature;BME280_humidity;BME280_pressure;Samples;Min_cycle;Max_cycle;Signal;HPM_P1;HPM_P2
2021/12/19 00:00:46;;;;;;;17.03;8.17;;;;;7.70;102901.00;;;;4980367;28;20269;-69
2021/12/19 00:03:50;;;;;;;17.67;8.03;;;;;7.70;102899.00;;;;4995081;28;20232;-70
2021/12/19 00:09:41;;;;;;;12.87;7.13;;;;;7.70;102903.00;;;;4992914;28;20277;-71
2021/12/19 00:12:28;;;;;;;17.43;7.70;;;;;7.60;102905.00;;;;5010790;28;20233;-69
2021/12/19 00:15:14;;;;;;;12.43;6.33;;;;;7.70;102902.00;;;;5004355;28;20234;-70
2021/12/19 00:18:01;;;;;;;13.83;6.53;;;;;7.70;102896.00;;;;4998646;28;20241;-71
2021/12/19 00:20:47;;;;;;;11.53;6.03;;;;;7.60;102877.00;;;;4995748;28;20329;-69
2021/12/19 00:23:54;;;;;;;13.50;6.23;;;;;7.70;102877.00;;;;4997208;28;20225;-70
2021/12/19 00:26:41;;;;;;;13.03;6.60;;;;;7.60;102870.00;;;;4995482;28;20710;-68
2021/12/19 00:29:29;;;;;;;15.57;7.07;;;;;7.70;102874.00;;;;4993977;28;20252;-69
2021/12/19 00:32:15;;;;;;;16.80;6.67;;;;;7.60;102824.00;;;;5000387;28;20254;-68
2021/12/19 00:35:01;;;;;;;18.57;6.17;;;;;7.60;102869.00;;;;4998417;28;20230;-68
2021/12/19 00:37:47;;;;;;;15.17;6.63;;;;;7.60;102858.00;;;;4996391;28;20232;-69
2021/12/19 00:40:34;;;;;;;12.03;6.10;;;;;7.60;102860.00;;;;5003417;28;20604;-69
2021/12/19 00:43:32;;;;;;;15.23;6.47;;;;;7.70;102855.00;;;;5003564;28;20238;-69
2021/12/19 00:46:22;;;;;;;14.20;6.13;;;;;7.70;102854.00;;;;4988659;28;20250;-69
2021/12/19 00:49:07;;;;;;;11.87;5.53;;;;;7.80;102843.00;;;;4991987;28;20237;-70
2021/12/19 00:51:54;;;;;;;13.33;6.43;;;;;7.70;102846.00;;;;4996515;28;20230;-69
2021/12/19 00:54:40;;;;;;;11.43;6.13;;;;;7.60;102859.00;;;;5001705;28;20229;-69
2021/12/19 00:57:26;;;;;;;12.87;5.20;;;;;7.70;102844.00;;;;5000872;28;20296;-70
2021/12/19 01:00:15;;;;;;;12.00;5.30;;;;;7.60;102833.00;;;;4994671;28;20253;-71
2021/12/19 01:03:04;;;;;;;12.47;5.93;;;;;7.60;102844.00;;;;5001518;28;20245;-71
2021/12/19 01:05:52;;;;;;;12.37;5.30;;;;;7.60;102841.00;;;;4999219;28;20230;-70
2021/12/19 01:08:39;;;;;;;10.67;4.90;;;;;7.60;102847.00;;;;4999501;28;20702;-70
2021/12/19 01:11:27;;;;;;;12.87;5.97;;;;;7.70;102823.00;;;;5005311;28;20245;-71
2021/12/19 01:14:14;;;;;;;11.43;5.77;;;;;7.60;102843.00;;;;5006011;28;20233;-69
2021/12/19 01:17:00;;;;;;;11.07;5.90;;;;;7.60;102843.00;;;;5000516;28;20776;-69
2021/12/19 01:19:47;;;;;;;14.37;6.40;;;;;7.70;102841.00;;;;4998056;28;20242;-69
2021/12/19 01:22:33;;;;;;;14.83;6.10;;;;;7.70;102841.00;;;;5005475;28;20233;-70
2021/12/19 01:25:20;;;;;;;14.03;6.40;;;;;7.70;102831.00;;;;5005631;28;20234;-69
2021/12/19 01:28:06;;;;;;;16.47;6.47;;;;;7.70;102839.00;;;;4986152;28;20234;-70
2021/12/19 01:30:53;;;;;;;12.50;6.10;;;;;7.60;102829.00;;;;4985165;28;20238;-71
2021/12/19 01:33:42;;;;;;;11.90;5.90;;;;;7.50;102836.00;;;;4989035;28;20368;-71
2021/12/19 01:36:30;;;;;;;13.83;6.03;;;;;7.60;102822.00;;;;5014074;28;20733;-70
2021/12/19 01:39:16;;;;;;;13.60;6.67;;;;;7.60;102835.00;;;;5013642;28;20361;-71
2021/12/19 01:42:03;;;;;;;14.93;5.93;;;;;7.60;102852.00;;;;5011423;28;20308;-71
2021/12/19 01:44:49;;;;;;;15.07;6.73;;;;;7.50;102847.00;;;;4993244;28;20246;-70
2021/12/19 01:47:36;;;;;;;14.03;7.00;;;;;7.60;102837.00;;;;5028367;28;20234;-71
2021/12/19 01:50:22;;;;;;;16.30;7.70;;;;;7.60;102838.00;;;;5017126;28;20241;-68
2021/12/19 01:53:12;;;;;;;15.83;7.10;;;;;7.50;102843.00;;;;5003260;28;20406;-70
2021/12/19 01:56:03;;;;;;;13.53;6.30;;;;;7.60;102839.00;;;;5003867;28;20936;-71
2021/12/19 01:58:49;;;;;;;14.10;6.77;;;;;7.50;102831.00;;;;4988354;28;20223;-69
2021/12/19 02:01:44;;;;;;;11.50;6.30;;;;;7.50;102828.00;;;;4987759;28;20329;-70
2021/12/19 02:04:33;;;;;;;13.37;6.70;;;;;7.60;102829.00;;;;5018094;28;20309;-69
2021/12/19 02:07:19;;;;;;;12.27;6.10;;;;;7.30;102830.00;;;;5000006;28;20233;-69
2021/12/19 02:10:09;;;;;;;14.13;6.33;;;;;7.50;102829.00;;;;4981365;28;20235;-70
2021/12/19 02:12:56;;;;;;;10.97;5.10;;;;;7.30;102841.00;;;;5008274;28;20229;-69
2021/12/19 02:15:44;;;;;;;11.23;4.97;;;;;7.30;102834.00;;;;4988709;28;20302;-71
2021/12/19 02:18:31;;;;;;;8.90;4.70;;;;;7.10;102829.00;;;;4988650;28;20262;-70
2021/12/19 02:21:19;;;;;;;7.50;3.90;;;;;6.90;102835.00;;;;4989990;28;20242;-72
2021/12/19 02:24:08;;;;;;;8.57;4.03;;;;;7.00;102823.00;;;;4982959;28;20226;-71
2021/12/19 02:26:54;;;;;;;7.97;3.60;;;;;6.90;102824.00;;;;4988220;28;20309;-70
2021/12/19 02:29:40;;;;;;;6.93;3.03;;;;;7.00;102789.00;;;;5024022;28;20226;-70
2021/12/19 02:32:29;;;;;;;7.27;3.60;;;;;7.00;102793.00;;;;5006578;28;20354;-70
2021/12/19 02:35:20;;;;;;;4.73;2.97;;;;;7.00;102809.00;;;;4993935;28;20239;-72
2021/12/19 02:38:34;;;;;;;5.63;2.70;;;;;6.90;102816.00;;;;4987578;28;20239;-70
2021/12/19 02:50:38;;;;;;;3.87;2.10;;;;;6.70;102813.00;;;;4992486;28;20233;-70
2021/12/19 02:53:32;;;;;;;4.77;1.87;;;;;6.70;102799.00;;;;5017904;28;20330;-70
2021/12/19 02:56:20;;;;;;;3.63;1.97;;;;;6.60;102806.00;;;;5009398;28;20234;-69
2021/12/19 02:59:06;;;;;;;3.47;2.00;;;;;6.70;102804.00;;;;4988733;28;20366;-71
2021/12/19 03:01:52;;;;;;;3.23;1.90;;;;;6.70;102787.00;;;;4986024;28;20235;-71
2021/12/19 03:04:38;;;;;;;3.53;2.13;;;;;6.70;102791.00;;;;5020599;28;20237;-70
2021/12/19 03:07:25;;;;;;;4.03;2.30;;;;;6.70;102787.00;;;;4991755;28;20238;-70
2021/12/19 03:10:48;;;;;;;4.93;2.37;;;;;6.70;102775.00;;;;5010827;28;20245;-70
2021/12/19 03:17:55;;;;;;;3.60;2.10;;;;;6.70;102778.00;;;;4991023;28;20238;-71
2021/12/19 03:19:56;;;;;;;4.33;2.30;;;;;6.70;102769.00;;;;4999539;28;20222;-70
2021/12/19 03:22:42;;;;;;;4.13;2.27;;;;;6.70;102757.00;;;;5006739;28;20714;-70
2021/12/19 03:25:31;;;;;;;3.87;2.20;;;;;6.70;102762.00;;;;5011094;28;20664;-71
2021/12/19 03:28:17;;;;;;;4.40;2.10;;;;;6.80;102756.00;;;;4991967;28;20250;-71
2021/12/19 03:31:04;;;;;;;3.33;2.20;;;;;6.70;102746.00;;;;4982239;28;20242;-68
2021/12/19 03:33:51;;;;;;;5.00;2.40;;;;;6.80;102746.00;;;;4980950;28;20390;-69
2021/12/19 03:36:37;;;;;;;4.70;2.20;;;;;6.80;102736.00;;;;4986878;28;20245;-69
2021/12/19 03:39:34;;;;;;;3.90;2.27;;;;;6.80;102730.00;;;;4993230;28;20598;-71
2021/12/19 03:42:21;;;;;;;3.27;2.00;;;;;6.80;102720.00;;;;4993181;28;20262;-70
2021/12/19 03:45:11;;;;;;;4.73;2.33;;;;;6.70;102735.00;;;;4987460;28;20722;-68
2021/12/19 03:47:57;;;;;;;3.47;2.10;;;;;6.70;102731.00;;;;5004021;28;20229;-70
2021/12/19 03:50:47;;;;;;;4.37;2.20;;;;;6.60;102728.00;;;;4991941;28;20225;-71
2021/12/19 03:53:34;;;;;;;6.27;2.20;;;;;6.70;102723.00;;;;4996548;28;20384;-71
2021/12/19 03:56:20;;;;;;;4.73;2.17;;;;;6.60;102727.00;;;;4992897;28;20230;-72
2021/12/19 03:59:08;;;;;;;5.63;2.13;;;;;6.70;102727.00;;;;4992170;28;20331;-71
2021/12/19 04:01:54;;;;;;;7.67;2.73;;;;;6.80;102726.00;;;;4986134;28;20239;-69
2021/12/19 04:04:40;;;;;;;4.47;2.77;;;;;6.70;102728.00;;;;5014694;28;20328;-71
2021/12/19 04:07:28;;;;;;;5.73;2.83;;;;;6.80;102720.00;;;;5006503;28;20280;-71
2021/12/19 04:10:15;;;;;;;5.10;2.50;;;;;6.70;102717.00;;;;5014192;28;20244;-72
2021/12/19 04:13:02;;;;;;;4.13;2.13;;;;;6.80;102711.00;;;;5009144;28;20742;-71
2021/12/19 04:15:50;;;;;;;4.37;2.20;;;;;6.80;102707.00;;;;5006639;28;20237;-71
2021/12/19 04:18:37;;;;;;;3.23;1.87;;;;;6.80;102701.00;;;;5006291;28;20306;-70
2021/12/19 04:21:23;;;;;;;3.70;2.00;;;;;6.80;102706.00;;;;5017111;28;20233;-71
2021/12/19 04:24:10;;;;;;;3.97;1.70;;;;;6.80;102717.00;;;;4993041;28;20309;-70
2021/12/19 04:26:57;;;;;;;3.37;1.73;;;;;6.70;102704.00;;;;4992569;28;20359;-70
2021/12/19 04:29:43;;;;;;;4.03;1.80;;;;;6.70;102706.00;;;;4986909;28;20258;-70
2021/12/19 04:32:35;;;;;;;2.97;1.47;;;;;6.60;102690.00;;;;4985037;28;20329;-70
2021/12/19 04:35:21;;;;;;;3.07;1.70;;;;;6.60;102689.00;;;;4984390;28;20254;-71
2021/12/19 04:41:47;;;;;;;2.27;1.50;;;;;6.70;102676.00;;;;4993573;28;20892;-70
2021/12/19 04:50:51;;;;;;;3.00;1.70;;;;;6.60;102676.00;;;;5004381;28;20234;-70
2021/12/19 04:51:07;;;;;;;2.80;1.60;;;;;6.70;102678.00;;;;4985775;28;20269;-68
2021/12/19 04:54:04;;;;;;;3.30;1.30;;;;;6.80;102675.00;;;;4986164;28;20238;-70
2021/12/19 04:57:04;;;;;;;2.57;1.40;;;;;6.60;102674.00;;;;4986118;28;20282;-71
2021/12/19 04:59:55;;;;;;;3.80;1.70;;;;;6.60;102652.00;;;;4986705;28;20230;-70
2021/12/19 05:02:48;;;;;;;2.57;1.57;;;;;6.60;102673.00;;;;4983698;28;20234;-71
2021/12/19 05:05:54;;;;;;;2.90;1.63;;;;;6.60;102663.00;;;;4980698;28;20235;-70
2021/12/19 05:14:54;;;;;;;2.80;1.63;;;;;6.70;102657.00;;;;5006496;28;20221;-71
2021/12/19 05:17:41;;;;;;;2.33;1.67;;;;;6.70;102667.00;;;;5008868;28;20337;-69
2021/12/19 05:20:29;;;;;;;3.43;1.70;;;;;6.60;102675.00;;;;5009328;28;20238;-71
2021/12/19 05:23:23;;;;;;;4.40;1.73;;;;;6.60;102658.00;;;;5009527;28;20242;-70
2021/12/19 05:26:09;;;;;;;2.10;1.43;;;;;6.60;102660.00;;;;5013255;28;20719;-71
2021/12/19 05:28:57;;;;;;;3.60;1.67;;;;;6.60;102658.00;;;;4989384;28;20223;-70
2021/12/19 05:31:45;;;;;;;3.27;1.60;;;;;6.60;102657.00;;;;5007660;28;20714;-72
2021/12/19 05:34:31;;;;;;;5.63;1.80;;;;;6.70;102659.00;;;;5015633;28;20318;-71
2021/12/19 05:46:30;;;;;;;2.83;2.00;;;;;6.70;102645.00;;;;5023424;28;20319;-71
2021/12/19 05:49:16;;;;;;;3.67;2.10;;;;;6.80;102643.00;;;;5006936;28;20279;-71
2021/12/19 05:52:03;;;;;;;3.67;1.70;;;;;6.80;102623.00;;;;4985596;28;20230;-71
2021/12/19 05:54:49;;;;;;;4.23;1.80;;;;;6.70;102633.00;;;;4988767;28;21041;-71
2021/12/19 05:57:37;;;;;;;3.97;1.77;;;;;6.70;102638.00;;;;4989545;28;20724;-70
2021/12/19 06:00:24;;;;;;;3.30;1.70;;;;;6.80;102639.00;;;;4994131;28;20250;-71
2021/12/19 06:03:10;;;;;;;2.17;1.60;;;;;6.80;102635.00;;;;4991931;28;20238;-71
2021/12/19 06:05:59;;;;;;;3.40;1.80;;;;;6.70;102625.00;;;;4988585;28;20243;-74
2021/12/19 06:08:46;;;;;;;2.43;1.60;;;;;6.70;102635.00;;;;4989059;28;20230;-70
2021/12/19 06:11:32;;;;;;;2.43;2.00;;;;;6.70;102632.00;;;;4979217;28;20255;-71
2021/12/19 06:14:20;;;;;;;2.60;1.70;;;;;6.80;102630.00;;;;4995523;28;20285;-71
2021/12/19 06:17:06;;;;;;;3.37;1.70;;;;;6.80;102605.00;;;;4988028;28;20226;-71
2021/12/19 06:19:52;;;;;;;2.23;1.60;;;;;6.80;102621.00;;;;4987269;28;20273;-72
2021/12/19 06:22:39;;;;;;;2.43;1.60;;;;;6.80;102614.00;;;;5012104;28;20249;-72
2021/12/19 06:25:26;;;;;;;3.37;1.60;;;;;6.80;102608.00;;;;4990322;28;20731;-71
2021/12/19 06:28:12;;;;;;;2.23;1.87;;;;;6.80;102602.00;;;;5014536;28;20233;-71
2021/12/19 06:31:00;;;;;;;3.13;1.90;;;;;6.80;102597.00;;;;4990289;28;20229;-71
2021/12/19 06:33:47;;;;;;;2.40;1.67;;;;;6.70;102600.00;;;;4997376;28;20222;-68
2021/12/19 06:36:34;;;;;;;3.70;1.83;;;;;6.90;102591.00;;;;4998010;28;20237;-72
2021/12/19 06:39:20;;;;;;;4.30;2.10;;;;;6.90;102593.00;;;;4996936;28;20233;-71
2021/12/19 06:42:09;;;;;;;4.07;1.87;;;;;6.80;102598.00;;;;5015115;28;20360;-68
2021/12/19 06:44:55;;;;;;;3.53;1.93;;;;;6.80;102594.00;;;;5014287;28;20233;-71
2021/12/19 06:47:43;;;;;;;3.33;2.03;;;;;6.90;102591.00;;;;4996311;28;20737;-72
2021/12/19 06:50:30;;;;;;;3.03;2.07;;;;;6.80;102571.00;;;;4993834;28;20250;-72
2021/12/19 06:53:16;;;;;;;2.10;1.60;;;;;6.80;102586.00;;;;5014251;28;20224;-71
2021/12/19 06:56:03;;;;;;;2.70;2.03;;;;;6.80;102592.00;;;;5008729;28;20225;-72
2021/12/19 06:58:49;;;;;;;4.03;2.07;;;;;6.90;102588.00;;;;5003388;28;20226;-69
2021/12/19 07:01:37;;;;;;;2.90;1.93;;;;;6.80;102583.00;;;;4992072;28;20315;-70
2021/12/19 07:04:24;;;;;;;3.33;1.87;;;;;6.90;102585.00;;;;4999871;28;20368;-71
2021/12/19 07:07:11;;;;;;;2.80;1.90;;;;;6.80;102581.00;;;;5003801;28;20257;-71
2021/12/19 07:09:57;;;;;;;4.23;1.87;;;;;6.80;102577.00;;;;5004989;28;20280;-70
2021/12/19 07:12:44;;;;;;;3.80;1.80;;;;;6.80;102571.00;;;;4987670;28;20223;-70
2021/12/19 07:15:30;;;;;;;2.30;1.80;;;;;6.80;102564.00;;;;4991922;28;20238;-68
2021/12/19 07:18:21;;;;;;;3.20;1.90;;;;;6.90;102568.00;;;;4972898;28;20226;-68
2021/12/19 07:21:09;;;;;;;5.20;2.30;;;;;7.00;102588.00;;;;5001595;28;20234;-71
2021/12/19 07:23:56;;;;;;;3.70;1.73;;;;;6.90;102588.00;;;;5000308;28;20237;-69
2021/12/19 07:26:42;;;;;;;4.20;2.17;;;;;7.00;102581.00;;;;5005005;28;20226;-71
2021/12/19 07:29:30;;;;;;;2.53;2.03;;;;;6.90;102585.00;;;;5005363;28;20719;-71
2021/12/19 07:32:16;;;;;;;4.13;1.83;;;;;7.00;102588.00;;;;5006243;28;20334;-72
2021/12/19 07:35:04;;;;;;;3.93;1.70;;;;;7.00;102580.00;;;;4977371;28;20239;-71
2021/12/19 07:37:54;;;;;;;2.70;1.77;;;;;6.80;102578.00;;;;4987213;28;20230;-68
2021/12/19 07:40:46;;;;;;;3.07;1.67;;;;;6.80;102577.00;;;;4991747;28;20237;-71
2021/12/19 07:43:33;;;;;;;4.20;2.10;;;;;6.90;102575.00;;;;5001486;28;20613;-71
2021/12/19 07:46:19;;;;;;;5.00;1.93;;;;;6.90;102576.00;;;;4998201;28;20238;-71
2021/12/19 07:49:06;;;;;;;3.97;1.90;;;;;7.00;102577.00;;;;4990483;28;20370;-71
2021/12/19 07:51:52;;;;;;;3.60;2.10;;;;;7.00;102562.00;;;;4999475;28;20234;-71
2021/12/19 07:54:39;;;;;;;2.87;1.77;;;;;6.90;102572.00;;;;5018327;28;20233;-72
2021/12/19 07:57:26;;;;;;;3.10;1.97;;;;;6.90;102564.00;;;;5000052;28;20238;-70
2021/12/19 08:00:15;;;;;;;2.67;1.80;;;;;7.10;102560.00;;;;5006640;28;20234;-71
2021/12/19 08:03:01;;;;;;;3.53;2.23;;;;;7.00;102552.00;;;;4985959;28;20274;-70
2021/12/19 08:05:48;;;;;;;2.60;2.00;;;;;7.00;102564.00;;;;4983871;28;20371;-71
2021/12/19 08:08:35;;;;;;;3.13;1.80;;;;;7.00;102565.00;;;;4973197;28;20335;-73
2021/12/19 08:11:41;;;;;;;2.53;1.87;;;;;7.10;102571.00;;;;4985400;28;20307;-69
2021/12/19 08:14:27;;;;;;;2.63;1.63;;;;;7.20;102574.00;;;;4989075;28;20626;-70
2021/12/19 08:17:13;;;;;;;2.50;1.60;;;;;7.30;102571.00;;;;4990773;28;20237;-70
2021/12/19 08:20:00;;;;;;;3.07;1.90;;;;;7.20;102571.00;;;;4987479;28;20230;-70
2021/12/19 08:22:48;;;;;;;2.10;1.70;;;;;7.10;102565.00;;;;4985922;28;20229;-70
2021/12/19 08:25:35;;;;;;;2.63;1.50;;;;;7.10;102570.00;;;;4988374;28;20241;-70
2021/12/19 08:28:23;;;;;;;3.00;1.80;;;;;7.10;102569.00;;;;5004108;28;20726;-71
2021/12/19 08:31:09;;;;;;;2.30;1.77;;;;;7.10;102559.00;;;;4997027;28;20247;-70
2021/12/19 08:33:56;;;;;;;2.00;1.50;;;;;7.10;102557.00;;;;4996978;28;20225;-70
2021/12/19 08:36:42;;;;;;;2.47;1.70;;;;;7.10;102551.00;;;;5004592;28;20229;-73
2021/12/19 08:39:30;;;;;;;2.37;1.60;;;;;7.10;102554.00;;;;5004553;28;20638;-71
2021/12/19 08:42:16;;;;;;;3.80;1.63;;;;;7.10;102557.00;;;;5000909;28;20238;-70
2021/12/19 08:45:05;;;;;;;2.97;1.60;;;;;7.20;102549.00;;;;5004744;28;20253;-71
2021/12/19 08:47:51;;;;;;;2.33;1.47;;;;;7.20;102556.00;;;;4992544;28;20241;-71
2021/12/19 08:50:38;;;;;;;2.13;1.70;;;;;7.30;102542.00;;;;4997366;28;20229;-72
2021/12/19 08:53:24;;;;;;;2.57;1.70;;;;;7.20;102554.00;;;;5000421;28;20314;-70
2021/12/19 08:56:10;;;;;;;2.30;1.70;;;;;7.30;102532.00;;;;5000971;28;20222;-70
2021/12/19 08:58:57;;;;;;;2.83;1.50;;;;;7.30;102467.00;;;;4991506;28;20221;-71
2021/12/19 09:01:47;;;;;;;4.53;1.60;;;;;7.40;102534.00;;;;4988909;28;20360;-71
2021/12/19 09:04:33;;;;;;;2.67;1.87;;;;;7.30;102544.00;;;;4987664;28;20239;-71
2021/12/19 09:07:20;;;;;;;4.97;2.00;;;;;7.30;102535.00;;;;4994745;28;20237;-71
2021/12/19 09:10:09;;;;;;;2.87;1.60;;;;;7.40;102539.00;;;;4989614;28;20275;-71
2021/12/19 09:12:56;;;;;;;3.00;1.70;;;;;7.50;102538.00;;;;4994742;28;20791;-70
2021/12/19 09:15:42;;;;;;;2.93;1.60;;;;;7.60;102530.00;;;;5006427;28;20262;-69
2021/12/19 09:18:31;;;;;;;2.37;1.77;;;;;7.60;102540.00;;;;4991971;28;20238;-68
2021/12/19 09:21:22;;;;;;;2.53;1.77;;;;;7.50;102536.00;;;;5009532;28;20316;-70
2021/12/19 09:24:10;;;;;;;2.80;1.80;;;;;7.50;102532.00;;;;5015479;28;20654;-70
2021/12/19 09:26:56;;;;;;;4.03;2.10;;;;;7.40;102530.00;;;;4999869;28;20717;-71
2021/12/19 09:29:43;;;;;;;3.37;1.97;;;;;7.40;102523.00;;;;5006461;28;20222;-70
2021/12/19 09:32:29;;;;;;;10.60;4.97;;;;;7.40;102544.00;;;;5008423;28;20243;-70
2021/12/19 09:35:17;;;;;;;8.57;4.60;;;;;7.40;102534.00;;;;4989335;28;20914;-67
2021/12/19 09:38:04;;;;;;;3.60;2.60;;;;;7.40;102538.00;;;;4986683;28;20615;-70
2021/12/19 09:40:58;;;;;;;2.97;2.33;;;;;7.30;102537.00;;;;4990154;28;20588;-69
2021/12/19 09:43:44;;;;;;;3.20;2.13;;;;;7.50;102535.00;;;;4987692;28;20227;-70
2021/12/19 09:46:33;;;;;;;2.03;1.50;;;;;7.50;102520.00;;;;4991055;28;20237;-71
2021/12/19 09:49:21;;;;;;;2.67;1.80;;;;;7.50;102530.00;;;;4991311;28;20226;-71
2021/12/19 09:52:09;;;;;;;1.90;1.30;;;;;7.60;102534.00;;;;4984681;28;20274;-70
2021/12/19 09:54:55;;;;;;;1.67;1.30;;;;;7.60;102525.00;;;;4981667;28;20369;-69
2021/12/19 09:57:42;;;;;;;1.57;1.20;;;;;7.60;102514.00;;;;4982861;28;20230;-67
2021/12/19 10:00:29;;;;;;;1.57;1.10;;;;;7.60;102516.00;;;;4985162;28;20243;-69
2021/12/19 10:03:16;;;;;;;1.40;1.10;;;;;7.60;102505.00;;;;4991725;28;20585;-69
2021/12/19 10:06:18;;;;;;;1.40;1.10;;;;;7.60;102508.00;;;;4985448;28;20368;-71
2021/12/19 10:09:11;;;;;;;1.00;1.00;;;;;7.60;102516.00;;;;4990381;28;21822;-70
2021/12/19 10:12:10;;;;;;;2.77;1.17;;;;;7.60;102498.00;;;;4980436;28;20828;-72
2021/12/19 10:14:57;;;;;;;1.70;1.10;;;;;7.80;102503.00;;;;4977183;28;20231;-70
2021/12/19 10:17:44;;;;;;;1.77;1.13;;;;;7.90;102492.00;;;;4985163;28;20230;-72
2021/12/19 10:20:42;;;;;;;1.77;1.00;;;;;7.90;102484.00;;;;4978730;28;20235;-71
2021/12/19 10:23:30;;;;;;;1.80;1.20;;;;;7.90;102495.00;;;;4982461;28;20282;-70
2021/12/19 10:26:18;;;;;;;1.43;1.33;;;;;7.90;102494.00;;;;4986666;28;20305;-72
2021/12/19 10:29:04;;;;;;;11.47;5.73;;;;;7.80;102485.00;;;;4984995;28;20326;-70
2021/12/19 10:32:03;;;;;;;3.03;2.33;;;;;7.80;102483.00;;;;4992711;28;20345;-70
2021/12/19 10:34:50;;;;;;;1.00;0.90;;;;;8.00;102477.00;;;;4985558;28;20286;-71
2021/12/19 10:37:39;;;;;;;1.93;1.30;;;;;8.00;102480.00;;;;4989159;28;20242;-70
2021/12/19 10:40:26;;;;;;;1.80;1.13;;;;;7.90;102474.00;;;;4994624;28;20618;-70
2021/12/19 10:43:16;;;;;;;1.57;1.03;;;;;7.80;102471.00;;;;4984268;28;20232;-68
2021/12/19 10:46:06;;;;;;;1.30;1.20;;;;;7.90;102471.00;;;;4984098;28;20605;-71
2021/12/19 10:48:52;;;;;;;2.00;1.17;;;;;7.70;102471.00;;;;4991968;28;20238;-70
2021/12/19 10:51:39;;;;;;;2.03;1.50;;;;;7.80;102464.00;;;;4996899;28;20230;-70
2021/12/19 10:54:25;;;;;;;3.57;1.90;;;;;7.90;102465.00;;;;4989059;28;20614;-71
2021/12/19 10:57:13;;;;;;;2.80;1.90;;;;;8.00;102465.00;;;;4990121;28;20857;-71
2021/12/19 11:00:01;;;;;;;2.93;2.20;;;;;7.80;102461.00;;;;4996196;28;20222;-71
2021/12/19 11:02:48;;;;;;;5.67;2.37;;;;;7.80;102463.00;;;;4987467;28;20231;-73
2021/12/19 11:05:37;;;;;;;3.43;2.37;;;;;7.70;102456.00;;;;4989813;28;20249;-71
2021/12/19 11:08:30;;;;;;;3.63;2.40;;;;;7.70;102448.00;;;;4986164;28;20230;-72
2021/12/19 11:11:31;;;;;;;6.37;2.50;;;;;7.80;102443.00;;;;4986743;28;20371;-72
2021/12/19 11:14:23;;;;;;;4.37;2.17;;;;;7.80;102448.00;;;;4984919;28;20239;-73
2021/12/19 11:17:14;;;;;;;2.80;2.03;;;;;7.80;102442.00;;;;4975767;28;20288;-71
2021/12/19 11:20:04;;;;;;;5.47;2.60;;;;;7.80;102440.00;;;;4991964;28;20736;-71
2021/12/19 11:22:51;;;;;;;3.83;2.37;;;;;7.90;102424.00;;;;4987828;28;20238;-70
2021/12/19 11:25:37;;;;;;;4.07;2.27;;;;;7.70;102428.00;;;;4982186;28;20722;-71
2021/12/19 11:28:24;;;;;;;5.07;2.40;;;;;7.70;102400.00;;;;4987854;28;20230;-71
2021/12/19 11:31:13;;;;;;;5.87;2.90;;;;;7.70;102428.00;;;;4990090;28;20242;-70
2021/12/19 11:34:20;;;;;;;3.87;2.43;;;;;7.80;102417.00;;;;4984058;28;20361;-67
2021/12/19 11:37:11;;;;;;;4.63;2.80;;;;;7.80;102419.00;;;;4982486;28;20235;-72
2021/12/19 11:39:58;;;;;;;4.77;3.00;;;;;7.80;102409.00;;;;4992574;28;20222;-71
2021/12/19 11:42:44;;;;;;;9.33;3.10;;;;;7.80;102407.00;;;;5009193;28;20310;-70
2021/12/19 11:45:35;;;;;;;5.63;3.10;;;;;7.90;102391.00;;;;4988953;28;20292;-71
2021/12/19 11:48:25;;;;;;;6.87;3.97;;;;;7.80;102393.00;;;;4989775;28;20317;-71
2021/12/19 11:51:20;;;;;;;3.80;3.00;;;;;7.60;102390.00;;;;4999780;28;20310;-72
2021/12/19 11:54:12;;;;;;;5.23;3.27;;;;;7.70;102385.00;;;;4985020;28;20234;-71
2021/12/19 11:57:21;;;;;;;4.97;3.00;;;;;7.70;102386.00;;;;4991821;28;20642;-72
2021/12/19 12:00:27;;;;;;;6.97;2.97;;;;;7.80;102373.00;;;;4991932;28;20253;-71
2021/12/19 12:03:46;;;;;;;6.50;3.40;;;;;7.70;102371.00;;;;4986194;28;20286;-70
2021/12/19 12:06:40;;;;;;;7.03;3.57;;;;;7.60;102367.00;;;;5000964;28;20380;-71
2021/12/19 12:09:31;;;;;;;7.63;3.40;;;;;7.90;102364.00;;;;5003053;28;20235;-70
2021/12/19 12:12:26;;;;;;;7.43;3.10;;;;;7.80;102358.00;;;;4987304;28;20305;-73
2021/12/19 12:15:13;;;;;;;6.33;2.77;;;;;7.70;102357.00;;;;4980040;28;20251;-72
2021/12/19 12:18:00;;;;;;;7.00;3.33;;;;;7.80;102342.00;;;;4976221;28;20234;-72
2021/12/19 12:20:47;;;;;;;6.90;2.90;;;;;7.60;102337.00;;;;4991589;28;20229;-72
2021/12/19 12:23:34;;;;;;;8.13;2.97;;;;;7.80;102321.00;;;;4985087;28;20273;-72
2021/12/19 12:26:26;;;;;;;6.00;2.60;;;;;7.70;102336.00;;;;5010243;28;20691;-72
2021/12/19 12:29:13;;;;;;;9.53;4.50;;;;;7.80;102335.00;;;;5015438;28;20724;-70
2021/12/19 12:31:59;;;;;;;8.10;4.57;;;;;7.70;102328.00;;;;4987898;28;20694;-69
2021/12/19 12:34:45;;;;;;;8.40;3.30;;;;;7.70;102330.00;;;;4992253;28;20234;-70
2021/12/19 12:37:33;;;;;;;5.17;3.20;;;;;7.80;102325.00;;;;4978527;28;20235;-72
2021/12/19 12:40:29;;;;;;;8.30;2.90;;;;;7.80;102321.00;;;;4972592;28;20231;-68
2021/12/19 12:43:17;;;;;;;8.97;3.13;;;;;7.80;102309.00;;;;4983549;28;20234;-71
2021/12/19 12:46:10;;;;;;;5.47;3.03;;;;;7.80;102312.00;;;;4978016;28;20243;-69
2021/12/19 12:48:58;;;;;;;6.23;3.13;;;;;7.80;102321.00;;;;4987614;28;20295;-69
2021/12/19 12:51:51;;;;;;;10.27;3.97;;;;;7.80;102312.00;;;;4978966;28;20235;-69
2021/12/19 12:54:39;;;;;;;8.40;3.97;;;;;7.70;102317.00;;;;4982917;28;20230;-70
2021/12/19 12:57:30;;;;;;;8.77;4.20;;;;;7.90;102305.00;;;;4987742;28;20236;-70
2021/12/19 13:00:21;;;;;;;8.07;4.00;;;;;7.80;102312.00;;;;4993045;28;20730;-71
2021/12/19 13:03:28;;;;;;;8.33;3.93;;;;;7.90;102310.00;;;;4985518;28;20234;-70
2021/12/19 13:06:15;;;;;;;10.43;4.40;;;;;7.90;102311.00;;;;4999820;28;20307;-70
2021/12/19 13:09:12;;;;;;;8.27;4.47;;;;;7.80;102301.00;;;;4998173;28;20222;-72
2021/12/19 13:12:11;;;;;;;7.10;4.37;;;;;7.90;102298.00;;;;4998645;28;20320;-73
2021/12/19 13:15:01;;;;;;;7.80;4.30;;;;;7.80;102303.00;;;;4984979;28;20227;-73
2021/12/19 13:17:49;;;;;;;8.67;3.97;;;;;7.80;102287.00;;;;4991269;28;20222;-72
2021/12/19 13:20:42;;;;;;;5.87;3.50;;;;;7.90;102292.00;;;;5017465;28;20225;-71
2021/12/19 13:23:28;;;;;;;5.80;3.93;;;;;7.90;102295.00;;;;5001459;28;20240;-72
2021/12/19 13:26:15;;;;;;;7.43;4.17;;;;;8.00;102287.00;;;;5007093;28;20244;-70
2021/12/19 13:29:17;;;;;;;7.83;4.00;;;;;7.90;102286.00;;;;4984053;28;20237;-72
2021/12/19 13:32:36;;;;;;;7.67;3.80;;;;;7.90;102280.00;;;;5014381;28;20303;-72
2021/12/19 13:35:26;;;;;;;6.73;3.50;;;;;8.00;102274.00;;;;5012751;28;20892;-71
2021/12/19 13:38:15;;;;;;;9.70;3.77;;;;;7.90;102274.00;;;;5017257;28;20241;-73
2021/12/19 13:41:04;;;;;;;5.03;3.47;;;;;7.90;102251.00;;;;4992745;28;20231;-70
2021/12/19 13:43:52;;;;;;;6.67;3.57;;;;;7.90;102269.00;;;;4980777;28;20246;-70
2021/12/19 13:46:39;;;;;;;6.67;3.60;;;;;7.90;102272.00;;;;4987801;28;20432;-72
2021/12/19 13:49:27;;;;;;;6.57;3.50;;;;;8.00;102262.00;;;;4992700;28;20235;-75
2021/12/19 13:52:14;;;;;;;8.87;3.50;;;;;7.90;102266.00;;;;4987232;28;20769;-73
2021/12/19 13:55:06;;;;;;;7.53;3.50;;;;;8.10;102264.00;;;;4987129;28;20586;-72
2021/12/19 13:58:06;;;;;;;8.00;3.23;;;;;7.90;102268.00;;;;4984430;28;20296;-72
2021/12/19 14:00:54;;;;;;;6.77;3.67;;;;;8.00;102264.00;;;;4983922;28;20227;-73
2021/12/19 14:03:44;;;;;;;6.20;2.87;;;;;8.00;102266.00;;;;5008923;28;20227;-72
2021/12/19 14:06:35;;;;;;;5.80;3.27;;;;;7.90;102248.00;;;;5008364;28;20254;-75
2021/12/19 14:09:23;;;;;;;6.93;3.23;;;;;7.80;102243.00;;;;5007322;28;20309;-73
2021/12/19 14:12:24;;;;;;;9.23;3.60;;;;;7.90;102253.00;;;;5003671;28;20600;-73
2021/12/19 14:15:11;;;;;;;6.87;3.60;;;;;7.80;102253.00;;;;5013583;28;20242;-73
2021/12/19 14:18:28;;;;;;;6.63;3.67;;;;;7.80;102243.00;;;;5030205;28;20214;-75
2021/12/19 14:21:37;;;;;;;6.43;3.30;;;;;8.00;102238.00;;;;5029159;28;20265;-76
2021/12/19 14:24:35;;;;;;;8.30;3.47;;;;;8.00;102240.00;;;;5041275;28;20229;-75
2021/12/19 14:27:25;;;;;;;6.83;3.63;;;;;7.80;102249.00;;;;5033124;28;20242;-74
2021/12/19 14:30:16;;;;;;;7.47;3.50;;;;;7.80;102235.00;;;;5020477;28;20226;-74
2021/12/19 14:33:02;;;;;;;4.57;3.07;;;;;7.70;102237.00;;;;5015994;28;20218;-75
2021/12/19 14:35:52;;;;;;;6.67;3.40;;;;;7.70;102241.00;;;;5021549;28;20238;-75
2021/12/19 14:38:42;;;;;;;6.30;3.00;;;;;7.70;102240.00;;;;5015931;28;20238;-73
2021/12/19 14:41:30;;;;;;;7.40;3.43;;;;;7.80;102222.00;;;;5023795;28;20235;-75
2021/12/19 14:44:23;;;;;;;6.47;3.33;;;;;7.80;102228.00;;;;5020206;28;20231;-75